createdAt,value
2023-01-02T00:01:14.620Z,101543.81
2023-01-02T00:03:42.551Z,101540.44
2023-01-02T00:06:10.579Z,101549.78
2023-01-02T00:08:39.895Z,101547.22
2023-01-02T00:11:07.982Z,101543.81
2023-01-02T00:13:35.949Z,101531.91
2023-01-02T00:16:03.803Z,101541.25
2023-01-02T00:18:31.692Z,101534.44
2023-01-02T00:21:04.892Z,101528.47
2023-01-02T00:23:33.315Z,101539.53
2023-01-02T00:26:02.970Z,101547.22
2023-01-02T00:28:31.232Z,101549.75
2023-01-02T00:30:59.300Z,101548.03
2023-01-02T00:33:27.415Z,101548.88
2023-01-02T00:35:55.300Z,101536.91
2023-01-02T00:38:23.183Z,101532.66
2023-01-02T00:40:51.074Z,101550.56
2023-01-02T00:43:20.326Z,101549.69
2023-01-02T00:45:48.979Z,101554.78
2023-01-02T00:48:16.900Z,101551.41
2023-01-02T00:50:45.477Z,101558.22
2023-01-02T00:53:13.592Z,101565.03
2023-01-02T00:55:41.532Z,101559.91
2023-01-02T00:58:09.393Z,101549.66
2023-01-02T01:00:39.107Z,101546.25
2023-01-02T01:03:07.183Z,101560.72
2023-01-02T01:05:35.061Z,101556.47
2023-01-02T01:08:02.980Z,101562.44
2023-01-02T01:10:30.936Z,101563.28
2023-01-02T01:12:58.793Z,101562.41
2023-01-02T01:15:26.689Z,101553.03
2023-01-02T01:17:55.924Z,101558.97
2023-01-02T01:20:23.792Z,101553.84
2023-01-02T01:22:51.734Z,101555.56
2023-01-02T01:25:19.776Z,101560.66
2023-01-02T01:27:47.636Z,101555.53
2023-01-02T01:30:15.637Z,101563.22
2023-01-02T01:32:43.517Z,101559.78
2023-01-02T01:35:12.743Z,101562.31
2023-01-02T01:37:40.655Z,101559.75
2023-01-02T01:40:09.327Z,101559.75
2023-01-02T01:42:37.456Z,101552.94
2023-01-02T01:45:13.439Z,101551.19
2023-01-02T01:47:44.052Z,101543.47
2023-01-02T01:50:16.489Z,101540.06
2023-01-02T01:52:48.891Z,101542.59
2023-01-02T01:55:20.179Z,101550.22
2023-01-02T01:57:51.265Z,101541.69
2023-01-02T02:00:19.575Z,101531.44
2023-01-02T02:02:51.391Z,101526.28
2023-01-02T02:05:24.892Z,101519.41
2023-01-02T02:08:03.495Z,101518.56
2023-01-02T02:10:31.861Z,101511.72
2023-01-02T02:12:59.741Z,101515.97
2023-01-02T02:15:40.112Z,101515.94
2023-01-02T02:18:19.705Z,101521.91
2023-01-02T02:20:53.108Z,101526.16
2023-01-02T02:23:54.219Z,101515.03
2023-01-02T02:26:58.906Z,101515.03
2023-01-02T02:30:02.239Z,101503.94
2023-01-02T02:32:41.438Z,101503.09
2023-01-02T02:35:19.715Z,101500.53
2023-01-02T02:37:55.088Z,101502.22
2023-01-02T02:40:34.069Z,101503.88
2023-01-02T02:43:11.410Z,101496.19
2023-01-02T02:45:49.905Z,101495.31
2023-01-02T02:48:24.885Z,101495.28
2023-01-02T02:51:02.279Z,101494.41
2023-01-02T02:53:37.135Z,101490.94
2023-01-02T02:56:08.788Z,101492.63
2023-01-02T02:58:37.425Z,101496.91
2023-01-02T03:01:09.212Z,101479.75
2023-01-02T03:03:37.234Z,101477.16
2023-01-02T03:06:16.570Z,101475.44
2023-01-02T03:08:51.665Z,101481.41
2023-01-02T03:11:19.897Z,101473.66
2023-01-02T03:14:00.298Z,101481.34
2023-01-02T03:16:33.689Z,101471.03
2023-01-02T03:19:07.060Z,101465.91
2023-01-02T03:21:37.295Z,101443.63
2023-01-02T03:24:09.131Z,101441.84
2023-01-02T03:26:41.140Z,101441.84
2023-01-02T03:29:13.661Z,101428.09
2023-01-02T03:31:46.200Z,101416.06
2023-01-02T03:34:18.572Z,101424.56
2023-01-02T03:36:51.327Z,101418.47
2023-01-02T03:39:21.832Z,101409.88
2023-01-02T03:41:55.136Z,101417.50
2023-01-02T03:44:25.856Z,101418.34
2023-01-02T03:47:00.616Z,101411.41
2023-01-02T03:49:33.163Z,101413.94
2023-01-02T03:52:01.569Z,101406.19
2023-01-02T03:54:31.156Z,101394.19
2023-01-02T03:57:03.825Z,101399.22
2023-01-02T03:59:40.264Z,101387.13
2023-01-02T04:02:14.779Z,101393.06
2023-01-02T04:04:53.354Z,101386.09
2023-01-02T04:07:28.432Z,101383.47
2023-01-02T04:09:58.475Z,101380.78
2023-01-02T04:12:27.860Z,101377.22
2023-01-02T04:15:00.561Z,101378.81
2023-01-02T04:17:33.039Z,101377.84
2023-01-02T04:20:05.340Z,101373.44
2023-01-02T04:22:37.979Z,101366.53
2023-01-02T04:25:11.108Z,101357.94
2023-01-02T04:27:45.971Z,101358.75
2023-01-02T04:30:14.119Z,101368.97
2023-01-02T04:32:45.403Z,101368.06
2023-01-02T04:35:17.397Z,101362.81
2023-01-02T04:37:45.731Z,101361.06
2023-01-02T04:40:19.130Z,101351.53
2023-01-02T04:42:47.076Z,101357.47
2023-01-02T04:45:15.148Z,101354.75
2023-01-02T04:47:44.671Z,101354.69
2023-01-02T04:50:12.649Z,101346.91
2023-01-02T04:52:40.513Z,101338.22
2023-01-02T04:55:10.492Z,101324.41
2023-01-02T04:57:38.771Z,101320.88
2023-01-02T05:00:08.704Z,101313.81
2023-01-02T05:02:37.103Z,101305.97
2023-01-02T05:05:08.753Z,101293.84
2023-01-02T05:07:37.069Z,101304.03
2023-01-02T05:10:05.622Z,101288.53
2023-01-02T05:12:35.052Z,101291.72
2023-01-02T05:15:03.215Z,101285.56
2023-01-02T05:17:34.879Z,101286.25
2023-01-02T05:20:02.860Z,101275.78
2023-01-02T05:22:49.531Z,101266.28
2023-01-02T05:25:17.713Z,101264.44
2023-01-02T05:27:45.834Z,101250.53
2023-01-02T05:30:13.989Z,101249.53
2023-01-02T05:32:41.939Z,101245.22
2023-01-02T05:35:10.679Z,101239.13
2023-01-02T05:37:39.988Z,101234.72
2023-01-02T05:40:09.188Z,101236.31
2023-01-02T05:42:37.061Z,101239.63
2023-01-02T05:45:05.616Z,101242.09
2023-01-02T05:47:34.461Z,101234.25
2023-01-02T05:50:02.293Z,101229.00
2023-01-02T05:52:30.163Z,101225.47
2023-01-02T05:54:59.469Z,101209.09
2023-01-02T05:57:27.364Z,101209.91
2023-01-02T05:59:55.247Z,101209.03
2023-01-02T06:02:23.297Z,101222.69
2023-01-02T06:04:51.321Z,101213.97
2023-01-02T06:07:19.509Z,101213.94
2023-01-02T06:09:47.805Z,101212.97
2023-01-02T06:12:17.051Z,101205.09
2023-01-02T06:14:44.891Z,101215.28
2023-01-02T06:17:12.751Z,101218.63
2023-01-02T06:19:40.565Z,101206.59
2023-01-02T06:22:08.418Z,101209.88
2023-01-02T06:24:36.275Z,101208.16
2023-01-02T06:27:04.235Z,101213.19
2023-01-02T06:29:33.536Z,101212.19
2023-01-02T06:32:01.411Z,101190.66
2023-01-02T06:34:29.367Z,101207.84
2023-01-02T06:36:57.300Z,101212.13
2023-01-02T06:39:25.242Z,101205.19
2023-01-02T06:41:53.864Z,101211.09
2023-01-02T06:44:21.785Z,101206.66
2023-01-02T06:46:51.149Z,101206.56
2023-01-02T06:49:18.991Z,101202.25
2023-01-02T06:51:49.384Z,101202.13
2023-01-02T06:54:17.350Z,101195.22
2023-01-02T06:56:45.192Z,101199.47
2023-01-02T06:59:13.153Z,101191.63
2023-01-02T07:01:41.152Z,101202.72
2023-01-02T07:04:16.529Z,101193.22
2023-01-02T07:06:44.450Z,101190.63
2023-01-02T07:09:12.552Z,101189.66
2023-01-02T07:11:40.520Z,101184.50
2023-01-02T07:14:08.421Z,101189.50
2023-01-02T07:16:36.383Z,101194.53
2023-01-02T07:19:04.406Z,101197.94
2023-01-02T07:21:33.613Z,101192.81
2023-01-02T07:24:01.496Z,101196.25
2023-01-02T07:26:29.402Z,101198.84
2023-01-02T07:28:57.284Z,101196.16
2023-01-02T07:31:29.684Z,101202.06
2023-01-02T07:33:58.873Z,101196.06
2023-01-02T07:36:26.864Z,101190.81
2023-01-02T07:38:57.289Z,101193.31
2023-01-02T07:41:27.324Z,101190.78
2023-01-02T07:43:56.324Z,101184.78
2023-01-02T07:46:24.822Z,101175.25
2023-01-02T07:48:52.911Z,101173.50
2023-01-02T07:51:26.699Z,101168.16
2023-01-02T07:53:56.901Z,101162.03
2023-01-02T07:56:24.959Z,101172.38
2023-01-02T07:58:53.151Z,101177.53
2023-01-02T08:01:21.194Z,101180.97
2023-01-02T08:03:49.340Z,101170.69
2023-01-02T08:06:19.180Z,101169.59
2023-01-02T08:08:47.755Z,101178.28
2023-01-02T08:11:19.017Z,101169.16
2023-01-02T08:13:47.023Z,101172.13
2023-01-02T08:16:17.216Z,101171.34
2023-01-02T08:18:45.358Z,101176.72
2023-01-02T08:21:13.795Z,101168.00
2023-01-02T08:23:41.683Z,101162.09
2023-01-02T08:26:11.259Z,101152.53
2023-01-02T08:28:42.256Z,101158.41
2023-01-02T08:31:12.003Z,101146.25
2023-01-02T08:33:40.124Z,101137.53
2023-01-02T08:36:09.100Z,101133.19
2023-01-02T08:38:37.159Z,101132.09
2023-01-02T08:41:05.253Z,101132.00
2023-01-02T08:43:35.425Z,101129.47
2023-01-02T08:46:05.711Z,101136.81
2023-01-02T08:48:33.467Z,101148.84
2023-01-02T08:51:01.454Z,101149.81
2023-01-02T08:53:29.351Z,101146.38
2023-01-02T08:56:17.164Z,101143.69
2023-01-02T08:58:50.424Z,101148.84
2023-01-02T09:01:22.368Z,101130.50
2023-01-02T09:03:51.070Z,101138.31
2023-01-02T09:06:22.012Z,101129.66
2023-01-02T09:08:52.299Z,101129.66
2023-01-02T09:11:23.828Z,101122.91
2023-01-02T09:13:51.954Z,101129.97
2023-01-02T09:16:21.364Z,101133.97
2023-01-02T09:18:49.755Z,101134.94
2023-01-02T09:21:18.274Z,101117.53
2023-01-02T09:23:46.112Z,101120.78
2023-01-02T09:26:14.654Z,101117.34
2023-01-02T09:28:42.940Z,101117.34
2023-01-02T09:31:13.083Z,101120.47
2023-01-02T09:33:42.482Z,101114.13
2023-01-02T09:36:12.861Z,101112.47
2023-01-02T09:38:41.065Z,101111.03
2023-01-02T09:41:26.536Z,101115.34
2023-01-02T09:43:59.215Z,101102.81
2023-01-02T09:46:32.872Z,101108.75
2023-01-02T09:49:03.744Z,101111.44
2023-01-02T09:51:34.361Z,101112.47
2023-01-02T09:54:02.415Z,101108.97
2023-01-02T09:56:34.453Z,101101.75
2023-01-02T09:59:10.798Z,101101.78
2023-01-02T10:01:57.118Z,101093.88
2023-01-02T10:04:37.112Z,101089.50
2023-01-02T10:07:11.921Z,101076.47
2023-01-02T10:09:50.569Z,101078.84
2023-01-02T10:12:26.610Z,101079.72
2023-01-02T10:14:57.129Z,101088.47
2023-01-02T10:17:27.956Z,101081.31
2023-01-02T10:20:02.108Z,101076.91
2023-01-02T10:22:37.106Z,101078.72
2023-01-02T10:25:09.568Z,101083.19
2023-01-02T10:27:42.165Z,101083.94
2023-01-02T10:30:19.464Z,101078.72
2023-01-02T10:32:56.486Z,101076.03
2023-01-02T10:35:37.677Z,101076.78
2023-01-02T10:38:05.966Z,101074.94
2023-01-02T10:40:34.571Z,101071.34
2023-01-02T10:43:02.836Z,101070.34
2023-01-02T10:45:31.608Z,101054.72
2023-01-02T10:48:00.430Z,101054.72
2023-01-02T10:50:33.631Z,101058.16
2023-01-02T10:53:08.314Z,101051.25
2023-01-02T10:55:40.034Z,101059.25
2023-01-02T10:58:15.901Z,101058.22
2023-01-02T11:00:43.838Z,101057.19
2023-01-02T11:03:17.152Z,101053.72
2023-01-02T11:05:50.289Z,101056.97
2023-01-02T11:08:21.790Z,101058.72
2023-01-02T11:10:50.723Z,101053.56
2023-01-02T11:13:20.338Z,101043.22
2023-01-02T11:15:51.522Z,101046.69
2023-01-02T11:18:23.669Z,101042.19
2023-01-02T11:20:54.946Z,101050.84
2023-01-02T11:23:25.994Z,101050.00
2023-01-02T11:25:55.308Z,101033.50
2023-01-02T11:28:26.633Z,101027.44
2023-01-02T11:31:01.719Z,101023.91
2023-01-02T11:33:31.597Z,101018.59
2023-01-02T11:36:08.279Z,101018.34
2023-01-02T11:38:45.258Z,101008.81
2023-01-02T11:41:50.188Z,101007.16
2023-01-02T11:44:23.557Z,101001.03
2023-01-02T11:46:52.154Z,100992.25
2023-01-02T11:49:23.708Z,100993.91
2023-01-02T11:51:57.515Z,100985.25
2023-01-02T11:54:33.927Z,100991.06
2023-01-02T11:57:02.039Z,100982.38
2023-01-02T11:59:34.686Z,100978.88
2023-01-02T12:02:12.974Z,100976.97
2023-01-02T12:04:40.991Z,100975.22
2023-01-02T12:07:26.211Z,100970.19
2023-01-02T12:10:02.502Z,100976.97
2023-01-02T12:12:52.194Z,100970.00
2023-01-02T12:15:44.773Z,100968.06
2023-01-02T12:18:25.021Z,100964.69
2023-01-02T12:20:56.760Z,100961.97
2023-01-02T12:23:45.865Z,100969.75
2023-01-02T12:26:17.040Z,100966.38
2023-01-02T12:28:59.457Z,100961.91
2023-01-02T12:31:49.407Z,100955.19
2023-01-02T12:34:31.673Z,100943.97
2023-01-02T12:37:15.869Z,100930.19
2023-01-02T12:40:06.060Z,100932.84
2023-01-02T12:43:03.760Z,100936.22
2023-01-02T12:45:42.045Z,100942.31
2023-01-02T12:48:24.963Z,100944.03
2023-01-02T12:51:04.945Z,100945.91
2023-01-02T12:54:19.901Z,100939.91
2023-01-02T12:56:52.969Z,100941.63
2023-01-02T12:59:42.195Z,100941.63
2023-01-02T13:02:22.685Z,100933.88
2023-01-02T13:04:57.063Z,100930.31
2023-01-02T13:07:32.605Z,100934.66
2023-01-02T13:10:04.564Z,100932.91
2023-01-02T13:12:36.202Z,100932.00
2023-01-02T13:15:10.928Z,100926.03
2023-01-02T13:17:49.333Z,100934.66
2023-01-02T13:20:30.893Z,100932.97
2023-01-02T13:23:10.435Z,100933.88
2023-01-02T13:25:45.127Z,100927.78
2023-01-02T13:28:15.866Z,100927.88
2023-01-02T13:31:19.194Z,100920.00
2023-01-02T13:33:47.366Z,100921.00
2023-01-02T13:36:20.497Z,100915.06
2023-01-02T13:38:53.324Z,100915.94
2023-01-02T13:41:21.897Z,100921.31
2023-01-02T13:43:55.941Z,100918.91
2023-01-02T13:47:02.264Z,100913.88
2023-01-02T13:49:21.291Z,100913.16
2023-01-02T13:51:49.418Z,100909.00
2023-01-02T13:54:21.067Z,100901.31
2023-01-02T13:57:18.366Z,100892.78
2023-01-02T13:59:59.798Z,100898.91
2023-01-02T14:02:28.036Z,100904.19
2023-01-02T14:04:56.051Z,100900.84
2023-01-02T14:07:56.446Z,100900.00
2023-01-02T14:10:35.093Z,100896.56
2023-01-02T14:13:19.898Z,100900.97
2023-01-02T14:16:37.777Z,100903.69
2023-01-02T14:19:23.622Z,100894.88
2023-01-02T14:22:05.145Z,100890.50
2023-01-02T14:24:37.962Z,100894.75
2023-01-02T14:27:08.067Z,100891.25
2023-01-02T14:29:50.637Z,100893.16
2023-01-02T14:32:28.725Z,100894.94
2023-01-02T14:34:59.148Z,100889.09
2023-01-02T14:37:31.954Z,100887.38
2023-01-02T14:40:18.724Z,100878.75
2023-01-02T14:43:08.200Z,100890.75
2023-01-02T14:45:41.633Z,100883.00
2023-01-02T14:48:15.563Z,100885.47
2023-01-02T14:50:46.835Z,100884.59
2023-01-02T14:53:20.082Z,100880.28
2023-01-02T14:55:50.475Z,100883.63
2023-01-02T14:58:26.652Z,100887.91
2023-01-02T15:01:04.211Z,100877.69
2023-01-02T15:03:45.135Z,100873.34
2023-01-02T15:06:22.261Z,100877.75
2023-01-02T15:08:53.013Z,100879.63
2023-01-02T15:11:40.093Z,100871.00
2023-01-02T15:14:10.375Z,100863.31
2023-01-02T15:16:42.561Z,100869.56
2023-01-02T15:19:18.927Z,100871.16
2023-01-02T15:21:48.060Z,100880.72
2023-01-02T15:24:24.572Z,100884.22
2023-01-02T15:26:53.636Z,100883.31
2023-01-02T15:29:24.642Z,100872.03
2023-01-02T15:31:54.549Z,100865.19
2023-01-02T15:34:29.417Z,100871.28
2023-01-02T15:37:00.159Z,100861.75
2023-01-02T15:39:33.761Z,100862.72
2023-01-02T15:42:11.705Z,100858.53
2023-01-02T15:44:58.353Z,100862.06
2023-01-02T15:47:28.393Z,100866.34
2023-01-02T15:49:58.813Z,100859.41
2023-01-02T15:52:31.130Z,100850.84
2023-01-02T15:54:59.752Z,100850.00
2023-01-02T15:57:30.005Z,100847.28
2023-01-02T15:59:57.683Z,100846.56
2023-01-02T16:02:41.952Z,100845.66
2023-01-02T16:05:14.160Z,100851.84
2023-01-02T16:07:43.062Z,100849.19
2023-01-02T16:10:19.229Z,100842.28
2023-01-02T16:12:51.979Z,100843.22
2023-01-02T16:15:22.487Z,100839.78
2023-01-02T16:17:51.561Z,100840.56
2023-01-02T16:20:22.611Z,100834.47
2023-01-02T16:22:55.123Z,100831.03
2023-01-02T16:25:25.626Z,100821.47
2023-01-02T16:27:55.824Z,100818.75
2023-01-02T16:30:32.606Z,100811.97
2023-01-02T16:33:02.726Z,100817.91
2023-01-02T16:35:34.382Z,100806.81
2023-01-02T16:38:04.042Z,100808.59
2023-01-02T16:40:59.674Z,100806.88
2023-01-02T16:43:30.906Z,100807.63
2023-01-02T16:46:00.206Z,100807.63
2023-01-02T16:48:30.579Z,100807.69
2023-01-02T16:50:59.775Z,100801.94
2023-01-02T16:53:30.039Z,100795.00
2023-01-02T16:55:57.942Z,100800.25
2023-01-02T16:58:26.375Z,100793.28
2023-01-02T17:00:56.046Z,100796.84
2023-01-02T17:03:25.741Z,100799.44
2023-01-02T17:06:01.066Z,100795.13
2023-01-02T17:08:32.279Z,100802.16
2023-01-02T17:11:00.630Z,100803.94
2023-01-02T17:13:29.309Z,100790.16
2023-01-02T17:15:58.469Z,100798.78
2023-01-02T17:18:26.852Z,100794.44
2023-01-02T17:20:54.805Z,100797.91
2023-01-02T17:23:22.877Z,100791.78
2023-01-02T17:25:52.276Z,100790.81
2023-01-02T17:28:20.238Z,100787.38
2023-01-02T17:30:50.159Z,100786.63
2023-01-02T17:33:19.619Z,100789.16
2023-01-02T17:35:47.661Z,100789.34
2023-01-02T17:38:15.880Z,100785.91
2023-01-02T17:40:44.051Z,100785.91
2023-01-02T17:43:13.375Z,100781.66
2023-01-02T17:45:42.925Z,100785.19
2023-01-02T17:48:14.175Z,100785.19
2023-01-02T17:50:44.024Z,100787.75
2023-01-02T17:53:11.909Z,100783.50
2023-01-02T17:55:39.800Z,100786.16
2023-01-02T17:58:07.764Z,100788.00
2023-01-02T18:00:36.961Z,100780.38
2023-01-02T18:03:05.020Z,100782.25
2023-01-02T18:05:32.935Z,100778.91
2023-01-02T18:08:00.761Z,100784.00
2023-01-02T18:10:32.852Z,100773.84
2023-01-02T18:13:01.458Z,100773.84
2023-01-02T18:15:29.615Z,100766.22
2023-01-02T18:18:01.337Z,100767.91
2023-01-02T18:20:29.295Z,100764.59
2023-01-02T18:22:58.138Z,100775.91
2023-01-02T18:25:28.385Z,100772.53
2023-01-02T18:27:57.417Z,100767.63
2023-01-02T18:30:27.123Z,100764.13
2023-01-02T18:33:02.468Z,100771.94
2023-01-02T18:35:59.970Z,100767.81
2023-01-02T18:38:31.381Z,100760.34
2023-01-02T18:40:59.369Z,100769.19
2023-01-02T18:43:29.417Z,100765.09
2023-01-02T18:46:01.566Z,100760.09
2023-01-02T18:48:31.627Z,100763.78
2023-01-02T18:51:01.385Z,100768.41
2023-01-02T18:53:35.881Z,100766.06
2023-01-02T18:56:14.277Z,100768.03
2023-01-02T18:58:43.939Z,100769.03
2023-01-02T19:01:31.348Z,100767.63
2023-01-02T19:04:24.399Z,100758.38
2023-01-02T19:06:56.370Z,100760.28
2023-01-02T19:09:29.242Z,100768.22
2023-01-02T19:12:18.950Z,100764.00
2023-01-02T19:14:47.450Z,100770.22
2023-01-02T19:17:22.649Z,100758.25
2023-01-02T19:19:52.115Z,100762.72
2023-01-02T19:22:22.997Z,100764.44
2023-01-02T19:24:51.249Z,100761.16
2023-01-02T19:27:25.473Z,100758.50
2023-01-02T19:29:54.332Z,100754.41
2023-01-02T19:32:29.027Z,100756.22
2023-01-02T19:35:00.915Z,100747.63
2023-01-02T19:37:38.956Z,100749.44
2023-01-02T19:40:18.662Z,100758.03
2023-01-02T19:42:47.877Z,100749.50
2023-01-02T19:45:17.288Z,100752.19
2023-01-02T19:47:49.428Z,100754.88
2023-01-02T19:50:20.785Z,100744.63
2023-01-02T19:52:48.948Z,100755.84
2023-01-02T19:55:17.955Z,100752.41
2023-01-02T19:57:46.747Z,100752.47
2023-01-02T20:00:17.217Z,100747.38
2023-01-02T20:02:48.969Z,100759.44
2023-01-02T20:05:21.942Z,100757.81
2023-01-02T20:07:51.126Z,100759.66
2023-01-02T20:10:20.260Z,100759.72
2023-01-02T20:12:48.256Z,100757.13
2023-01-02T20:15:17.761Z,100750.41
2023-01-02T20:17:46.663Z,100754.72
2023-01-02T20:20:23.646Z,100751.53
2023-01-02T20:22:54.855Z,100756.59
2023-01-02T20:25:26.409Z,100758.34
2023-01-02T20:27:56.101Z,100759.22
2023-01-02T20:30:25.233Z,100764.38
2023-01-02T20:32:53.380Z,100761.91
2023-01-02T20:35:21.345Z,100756.81
2023-01-02T20:37:49.320Z,100768.16
2023-01-02T20:40:18.778Z,100763.13
2023-01-02T20:42:48.189Z,100763.97
2023-01-02T20:45:16.088Z,100762.22
2023-01-02T20:47:46.081Z,100764.22
2023-01-02T20:50:14.050Z,100752.97
2023-01-02T20:52:41.972Z,100770.09
2023-01-02T20:55:10.830Z,100769.59
2023-01-02T20:57:40.104Z,100768.84
2023-01-02T21:00:10.386Z,100767.97
2023-01-02T21:02:38.637Z,100777.47
2023-01-02T21:05:07.125Z,100774.94
2023-01-02T21:07:35.039Z,100771.63
2023-01-02T21:10:02.943Z,100780.16
2023-01-02T21:12:48.379Z,100776.81
2023-01-02T21:15:33.661Z,100775.25
2023-01-02T21:18:02.144Z,100771.88
2023-01-02T21:20:30.076Z,100777.09
2023-01-02T21:22:58.049Z,100774.63
2023-01-02T21:25:25.916Z,100780.50
2023-01-02T21:27:53.875Z,100791.78
2023-01-02T21:30:23.403Z,100787.50
2023-01-02T21:32:51.393Z,100791.84
2023-01-02T21:35:19.364Z,100791.13
2023-01-02T21:37:47.307Z,100790.38
2023-01-02T21:40:15.414Z,100791.13
2023-01-02T21:42:45.119Z,100797.25
2023-01-02T21:45:13.512Z,100789.56
2023-01-02T21:47:42.788Z,100792.09
2023-01-02T21:50:11.540Z,100790.38
2023-01-02T21:52:39.774Z,100794.72
2023-01-02T21:55:08.433Z,100800.69
2023-01-02T21:58:11.800Z,100800.69
2023-01-02T22:00:26.788Z,100805.78
2023-01-02T22:02:56.695Z,100814.50
2023-01-02T22:05:24.651Z,100812.88
2023-01-02T22:07:52.590Z,100811.13
2023-01-02T22:10:20.701Z,100815.50
2023-01-02T22:12:48.608Z,100812.94
2023-01-02T22:15:16.596Z,100810.34
2023-01-02T22:17:44.474Z,100811.31
2023-01-02T22:20:13.862Z,100811.34
2023-01-02T22:22:41.732Z,100814.78
2023-01-02T22:25:10.594Z,100817.38
2023-01-02T22:27:38.924Z,100815.72
2023-01-02T22:30:33.102Z,100820.94
2023-01-02T22:32:56.208Z,100808.88
2023-01-02T22:35:25.456Z,100808.78
2023-01-02T22:37:53.335Z,100812.31
2023-01-02T22:40:21.303Z,100815.78
2023-01-02T22:43:00.959Z,100810.53
2023-01-02T22:45:33.034Z,100810.69
2023-01-02T22:48:04.748Z,100815.69
2023-01-02T22:50:42.001Z,100806.22
2023-01-02T22:53:18.560Z,100806.22
2023-01-02T22:55:46.593Z,100815.69
2023-01-02T22:58:14.477Z,100814.88
2023-01-02T23:00:42.521Z,100815.78
2023-01-02T23:03:13.513Z,100816.59
2023-01-02T23:05:43.210Z,100815.69
2023-01-02T23:08:11.239Z,100811.34
2023-01-02T23:10:39.178Z,100810.69
2023-01-02T23:13:07.167Z,100823.59
2023-01-02T23:15:35.059Z,100821.75
2023-01-02T23:18:20.255Z,100821.91
2023-01-02T23:20:49.534Z,100821.16
2023-01-02T23:23:17.490Z,100821.13
2023-01-02T23:25:45.410Z,100826.31
2023-01-02T23:28:31.960Z,100822.97
2023-01-02T23:31:01.108Z,100824.72
2023-01-02T23:33:29.120Z,100829.69
2023-01-02T23:35:58.533Z,100823.72
2023-01-02T23:38:26.481Z,100831.63
2023-01-02T23:40:54.405Z,100832.44
2023-01-02T23:43:22.327Z,100822.28
2023-01-02T23:45:50.416Z,100824.91
2023-01-02T23:48:18.297Z,100822.28
2023-01-02T23:50:47.261Z,100826.59
2023-01-02T23:53:16.870Z,100829.97
2023-01-02T23:55:44.743Z,100819.72
2023-01-02T23:58:12.619Z,100826.53
